createdAt,value
2023-05-09T00:00:43.429Z,2.10
2023-05-09T00:05:36.157Z,1.90
2023-05-09T00:10:29.263Z,2.05
2023-05-09T00:15:22.359Z,2.00
2023-05-09T00:20:17.079Z,2.10
2023-05-09T00:25:12.872Z,2.10
2023-05-09T00:30:08.621Z,2.42
2023-05-09T00:35:01.768Z,2.20
2023-05-09T00:39:54.330Z,2.22
2023-05-09T00:44:47.696Z,2.50
2023-05-09T00:49:40.560Z,2.13
2023-05-09T00:54:33.824Z,2.00
2023-05-09T00:59:28.193Z,2.35
2023-05-09T01:04:22.408Z,2.22
2023-05-09T01:09:33.636Z,2.20
2023-05-09T01:15:09.342Z,2.53
2023-05-09T01:20:24.039Z,1.73
2023-05-09T01:25:31.504Z,2.00
2023-05-09T01:30:45.894Z,2.30
2023-05-09T01:35:58.082Z,2.30
2023-05-09T01:41:12.049Z,1.75
2023-05-09T01:46:25.889Z,2.22
2023-05-09T01:51:20.715Z,2.35
2023-05-09T01:56:14.654Z,2.53
2023-05-09T02:01:07.838Z,2.17
2023-05-09T02:06:04.324Z,2.22
2023-05-09T02:10:57.460Z,2.58
2023-05-09T02:15:51.093Z,2.10
2023-05-09T02:20:45.068Z,2.10
2023-05-09T02:25:40.107Z,2.08
2023-05-09T02:30:37.782Z,1.85
2023-05-09T02:35:30.570Z,1.98
2023-05-09T02:40:25.033Z,2.40
2023-05-09T02:45:18.063Z,2.15
2023-05-09T02:50:11.132Z,2.00
2023-05-09T02:55:04.901Z,2.00
2023-05-09T03:00:02.422Z,2.33
2023-05-09T03:04:56.062Z,2.10
2023-05-09T03:09:49.731Z,1.83
2023-05-09T03:14:42.149Z,2.35
2023-05-09T03:19:35.382Z,1.85
2023-05-09T03:24:31.161Z,1.90
2023-05-09T03:29:24.592Z,1.92
2023-05-09T03:34:18.331Z,2.65
2023-05-09T03:39:11.848Z,2.42
2023-05-09T03:44:10.675Z,2.50
2023-05-09T03:49:05.898Z,2.22
2023-05-09T03:54:00.740Z,2.65
2023-05-09T03:58:54.828Z,2.83
2023-05-09T04:03:48.844Z,2.38
2023-05-09T04:08:42.214Z,2.45
2023-05-09T04:13:35.283Z,2.10
2023-05-09T04:18:33.520Z,2.25
2023-05-09T04:23:26.157Z,2.20
2023-05-09T04:28:22.262Z,2.20
2023-05-09T04:33:15.545Z,2.30
2023-05-09T04:38:09.025Z,2.75
2023-05-09T04:43:02.309Z,2.58
2023-05-09T04:47:56.669Z,2.25
2023-05-09T04:52:49.710Z,2.20
2023-05-09T04:57:42.914Z,2.00
2023-05-09T05:02:35.982Z,2.38
2023-05-09T05:07:29.501Z,2.30
2023-05-09T05:12:22.564Z,2.20
2023-05-09T05:17:17.747Z,2.78
2023-05-09T05:22:12.319Z,2.90
2023-05-09T05:27:07.779Z,4.07
2023-05-09T05:32:01.407Z,10.07
2023-05-09T05:36:54.101Z,17.45
2023-05-09T05:41:48.065Z,16.65
2023-05-09T05:46:42.836Z,16.98
2023-05-09T05:51:47.188Z,13.43
2023-05-09T05:56:40.438Z,11.25
2023-05-09T06:01:34.394Z,10.25
2023-05-09T06:06:29.726Z,10.52
2023-05-09T06:11:23.763Z,8.48
2023-05-09T06:16:19.845Z,7.60
2023-05-09T06:21:15.526Z,8.05
2023-05-09T06:26:09.087Z,6.75
2023-05-09T06:31:02.185Z,5.53
2023-05-09T06:35:55.641Z,4.88
2023-05-09T06:40:49.560Z,5.00
2023-05-09T06:45:44.541Z,4.88
2023-05-09T06:50:41.407Z,4.88
2023-05-09T06:55:34.725Z,4.65
2023-05-09T07:00:28.288Z,4.60
2023-05-09T07:05:21.932Z,4.50
2023-05-09T07:10:15.878Z,4.65
2023-05-09T07:15:12.068Z,4.50
2023-05-09T07:20:07.613Z,4.35
2023-05-09T07:25:01.518Z,4.50
2023-05-09T07:29:55.076Z,4.20
2023-05-09T07:34:48.661Z,4.53
2023-05-09T07:39:42.250Z,4.97
2023-05-09T07:44:35.709Z,4.57
2023-05-09T07:49:29.138Z,3.78
2023-05-09T07:54:22.618Z,5.22
2023-05-09T07:59:15.651Z,5.45
2023-05-09T08:04:09.584Z,5.30
2023-05-09T08:09:03.033Z,6.22
2023-05-09T08:13:55.695Z,5.80
2023-05-09T08:18:48.377Z,5.97
2023-05-09T08:23:41.279Z,6.22
2023-05-09T08:28:34.547Z,7.88
2023-05-09T08:33:27.124Z,7.18
2023-05-09T08:38:21.711Z,6.38
2023-05-09T08:43:18.422Z,7.35
2023-05-09T08:48:13.289Z,7.15
2023-05-09T08:53:06.524Z,7.55
2023-05-09T08:58:00.179Z,7.45
2023-05-09T09:02:54.481Z,6.88
2023-05-09T09:07:47.969Z,7.75
2023-05-09T09:12:41.847Z,7.95
2023-05-09T09:17:41.847Z,8.18
2023-05-09T09:22:39.748Z,9.25
2023-05-09T09:27:33.015Z,10.38
2023-05-09T09:32:34.555Z,8.50
2023-05-09T09:37:28.236Z,8.50
2023-05-09T09:42:22.442Z,8.23
2023-05-09T09:47:15.595Z,8.02
2023-05-09T09:52:09.147Z,7.05
2023-05-09T09:57:02.386Z,6.97
2023-05-09T10:01:59.142Z,7.13
2023-05-09T10:07:14.644Z,6.43
2023-05-09T10:12:09.165Z,6.00
2023-05-09T10:17:03.812Z,6.13
2023-05-09T10:21:59.884Z,5.88
2023-05-09T10:26:57.367Z,5.40
2023-05-09T10:31:55.042Z,5.10
2023-05-09T10:36:49.472Z,5.10
2023-05-09T10:41:43.335Z,4.88
2023-05-09T10:46:37.318Z,4.88
2023-05-09T10:51:31.396Z,4.15
2023-05-09T10:56:34.388Z,3.95
2023-05-09T11:01:39.741Z,4.65
2023-05-09T11:06:55.712Z,4.05
2023-05-09T11:11:53.005Z,4.32
2023-05-09T11:17:25.267Z,4.05
2023-05-09T11:22:33.085Z,4.20
2023-05-09T11:27:28.918Z,4.03
2023-05-09T11:32:23.020Z,3.95
2023-05-09T11:37:23.895Z,3.90
2023-05-09T11:42:18.865Z,3.85
2023-05-09T11:47:12.402Z,3.70
2023-05-09T11:52:13.568Z,3.88
2023-05-09T11:57:08.108Z,4.50
2023-05-09T12:02:04.863Z,4.65
2023-05-09T12:06:59.398Z,5.95
2023-05-09T12:11:52.737Z,7.50
2023-05-09T12:16:49.283Z,8.35
2023-05-09T12:21:42.894Z,10.93
2023-05-09T12:26:36.398Z,11.82
2023-05-09T12:31:29.779Z,9.32
2023-05-09T12:36:25.034Z,7.93
2023-05-09T12:41:34.928Z,8.15
2023-05-09T12:46:31.615Z,8.05
2023-05-09T12:51:24.556Z,7.53
2023-05-09T12:56:19.490Z,6.70
2023-05-09T13:01:14.701Z,6.55
2023-05-09T13:06:13.972Z,6.57
2023-05-09T13:11:16.127Z,5.33
2023-05-09T13:16:12.016Z,5.60
2023-05-09T13:21:06.070Z,5.45
2023-05-09T13:25:59.564Z,5.13
2023-05-09T13:30:52.671Z,5.00
2023-05-09T13:35:48.487Z,4.70
2023-05-09T13:40:42.232Z,5.07
2023-05-09T13:45:34.842Z,4.50
2023-05-09T13:50:27.958Z,3.83
2023-05-09T13:55:22.309Z,4.72
2023-05-09T14:00:18.365Z,4.10
2023-05-09T14:05:12.101Z,4.25
2023-05-09T14:10:11.366Z,5.30
2023-05-09T14:15:07.822Z,7.32
2023-05-09T14:19:59.957Z,7.22
2023-05-09T14:24:54.525Z,7.88
2023-05-09T14:29:49.389Z,7.90
2023-05-09T14:34:42.853Z,7.32
2023-05-09T14:39:36.990Z,7.28
2023-05-09T14:44:30.133Z,7.30
2023-05-09T14:49:23.588Z,6.70
2023-05-09T14:54:16.224Z,6.60
2023-05-09T14:59:09.598Z,6.07
2023-05-09T15:04:03.198Z,6.45
2023-05-09T15:08:56.375Z,6.07
2023-05-09T15:13:49.677Z,5.47
2023-05-09T15:18:45.933Z,5.20
2023-05-09T15:23:42.333Z,6.10
2023-05-09T15:28:36.296Z,5.35
2023-05-09T15:33:29.642Z,9.55
2023-05-09T15:38:23.449Z,10.32
2023-05-09T15:43:16.936Z,8.45
2023-05-09T15:48:11.585Z,6.97
2023-05-09T15:53:04.964Z,6.25
2023-05-09T15:57:58.882Z,5.55
2023-05-09T16:02:52.187Z,5.50
2023-05-09T16:07:51.001Z,5.88
2023-05-09T16:12:44.813Z,5.68
2023-05-09T16:17:38.433Z,5.15
2023-05-09T16:22:31.959Z,5.15
2023-05-09T16:27:25.009Z,5.95
2023-05-09T16:32:18.497Z,5.13
2023-05-09T16:37:11.530Z,6.00
2023-05-09T16:42:04.465Z,5.53
2023-05-09T16:46:57.885Z,5.90
2023-05-09T16:51:51.760Z,5.93
2023-05-09T16:56:44.951Z,5.82
2023-05-09T17:01:38.286Z,5.47
2023-05-09T17:06:31.753Z,5.47
2023-05-09T17:11:25.207Z,5.65
2023-05-09T17:16:18.368Z,4.57
2023-05-09T17:21:10.885Z,4.80
2023-05-09T17:26:04.365Z,4.05
2023-05-09T17:31:02.389Z,4.53
2023-05-09T17:35:56.120Z,4.35
2023-05-09T17:40:53.474Z,4.35
2023-05-09T17:45:46.896Z,4.60
2023-05-09T17:50:40.757Z,3.58
2023-05-09T17:55:33.326Z,3.35
2023-05-09T18:00:27.432Z,4.13
2023-05-09T18:05:21.148Z,3.30
2023-05-09T18:10:15.240Z,3.80
2023-05-09T18:15:11.150Z,3.15
2023-05-09T18:20:06.594Z,3.42
2023-05-09T18:24:59.708Z,2.97
2023-05-09T18:29:53.171Z,3.95
2023-05-09T18:34:45.733Z,3.58
2023-05-09T18:39:42.220Z,3.05
2023-05-09T18:44:36.996Z,3.50
2023-05-09T18:49:30.489Z,3.20
2023-05-09T18:54:25.296Z,2.95
2023-05-09T18:59:18.360Z,3.00
2023-05-09T19:04:11.519Z,2.72
2023-05-09T19:09:04.901Z,2.80
2023-05-09T19:13:58.067Z,2.80
2023-05-09T19:18:51.867Z,3.03
2023-05-09T19:23:48.216Z,3.08
2023-05-09T19:28:40.843Z,2.90
2023-05-09T19:33:34.687Z,2.28
2023-05-09T19:38:28.377Z,2.88
2023-05-09T19:43:22.585Z,2.42
2023-05-09T19:48:16.383Z,2.67
2023-05-09T19:53:09.801Z,2.53
2023-05-09T19:58:03.449Z,2.50
2023-05-09T20:03:00.197Z,2.63
2023-05-09T20:07:53.584Z,2.63
2023-05-09T20:12:51.572Z,2.50
2023-05-09T20:17:45.226Z,2.60
2023-05-09T20:22:38.932Z,2.28
2023-05-09T20:27:32.821Z,2.88
2023-05-09T20:32:26.190Z,2.30
2023-05-09T20:37:19.153Z,2.88
2023-05-09T20:42:12.467Z,2.47
2023-05-09T20:47:06.477Z,2.60
2023-05-09T20:52:00.449Z,2.25
2023-05-09T20:56:53.791Z,2.38
2023-05-09T21:01:47.012Z,2.35
2023-05-09T21:06:40.862Z,2.25
2023-05-09T21:11:35.736Z,2.90
2023-05-09T21:16:29.726Z,2.28
2023-05-09T21:21:23.561Z,3.25
2023-05-09T21:26:17.117Z,3.05
2023-05-09T21:31:11.637Z,2.60
2023-05-09T21:36:03.934Z,2.47
2023-05-09T21:41:01.427Z,2.22
2023-05-09T21:45:56.073Z,2.35
2023-05-09T21:50:48.632Z,2.10
2023-05-09T21:55:42.022Z,2.17
2023-05-09T22:00:35.444Z,2.33
2023-05-09T22:05:28.608Z,2.55
2023-05-09T22:10:21.697Z,2.50
2023-05-09T22:15:14.366Z,2.15
2023-05-09T22:20:07.596Z,2.20
2023-05-09T22:25:00.833Z,1.90
2023-05-09T22:29:53.796Z,2.40
2023-05-09T22:34:48.528Z,3.33
2023-05-09T22:39:42.048Z,2.08
2023-05-09T22:44:35.746Z,2.00
2023-05-09T22:49:28.782Z,2.03
2023-05-09T22:54:24.025Z,1.85
2023-05-09T22:59:16.554Z,2.22
2023-05-09T23:04:11.011Z,2.17
2023-05-09T23:09:05.057Z,2.33
2023-05-09T23:13:58.763Z,2.10
2023-05-09T23:18:52.674Z,1.77
2023-05-09T23:23:45.702Z,2.28
2023-05-09T23:28:37.863Z,1.85
2023-05-09T23:33:31.515Z,2.50
2023-05-09T23:38:24.038Z,1.90
2023-05-09T23:43:18.582Z,1.88
2023-05-09T23:48:12.470Z,1.90
2023-05-09T23:53:07.525Z,1.92
2023-05-09T23:58:02.892Z,2.17
